sensor_id;sensor_type;location;lat;lon;timestamp;P1;durP1;ratioP1;P2;durP2;ratioP2
27223;SDS011;14965;50.660;13.226;2023-06-22T00:00:06;17.80;;;14.25;;
27223;SDS011;14965;50.660;13.226;2023-06-22T00:02:33;22.00;;;14.50;;
27223;SDS011;14965;50.660;13.226;2023-06-22T00:04:59;18.60;;;14.30;;
27223;SDS011;14965;50.660;13.226;2023-06-22T00:07:25;21.92;;;15.27;;
27223;SDS011;14965;50.660;13.226;2023-06-22T00:09:50;26.38;;;14.48;;
27223;SDS011;14965;50.660;13.226;2023-06-22T00:12:16;22.02;;;14.88;;
27223;SDS011;14965;50.660;13.226;2023-06-22T00:14:42;21.02;;;15.15;;
27223;SDS011;14965;50.660;13.226;2023-06-22T00:17:09;19.80;;;14.73;;
27223;SDS011;14965;50.660;13.226;2023-06-22T00:19:35;23.10;;;15.05;;
27223;SDS011;14965;50.660;13.226;2023-06-22T00:22:01;18.00;;;13.85;;
27223;SDS011;14965;50.660;13.226;2023-06-22T00:24:27;18.10;;;14.25;;
27223;SDS011;14965;50.660;13.226;2023-06-22T00:26:53;23.30;;;14.90;;
27223;SDS011;14965;50.660;13.226;2023-06-22T00:29:19;24.23;;;15.30;;
27223;SDS011;14965;50.660;13.226;2023-06-22T00:31:45;27.20;;;15.85;;
27223;SDS011;14965;50.660;13.226;2023-06-22T00:34:12;22.50;;;14.95;;
27223;SDS011;14965;50.660;13.226;2023-06-22T00:36:38;23.85;;;15.25;;
27223;SDS011;14965;50.660;13.226;2023-06-22T00:39:03;22.50;;;15.93;;
27223;SDS011;14965;50.660;13.226;2023-06-22T00:41:29;25.27;;;16.98;;
27223;SDS011;14965;50.660;13.226;2023-06-22T00:43:55;21.55;;;15.00;;
27223;SDS011;14965;50.660;13.226;2023-06-22T00:46:21;21.15;;;14.65;;
27223;SDS011;14965;50.660;13.226;2023-06-22T00:48:48;19.40;;;15.25;;
27223;SDS011;14965;50.660;13.226;2023-06-22T00:51:16;24.52;;;14.73;;
27223;SDS011;14965;50.660;13.226;2023-06-22T00:53:42;20.10;;;14.43;;
27223;SDS011;14965;50.660;13.226;2023-06-22T00:56:08;20.95;;;14.05;;
27223;SDS011;14965;50.660;13.226;2023-06-22T00:58:36;22.75;;;15.68;;
27223;SDS011;14965;50.660;13.226;2023-06-22T01:01:02;21.17;;;15.25;;
27223;SDS011;14965;50.660;13.226;2023-06-22T01:03:28;25.90;;;16.05;;
27223;SDS011;14965;50.660;13.226;2023-06-22T01:05:53;21.05;;;15.00;;
27223;SDS011;14965;50.660;13.226;2023-06-22T01:08:36;21.05;;;15.50;;
27223;SDS011;14965;50.660;13.226;2023-06-22T01:11:12;20.60;;;15.38;;
27223;SDS011;14965;50.660;13.226;2023-06-22T01:13:48;20.73;;;14.95;;
27223;SDS011;14965;50.660;13.226;2023-06-22T01:16:23;20.50;;;15.32;;
27223;SDS011;14965;50.660;13.226;2023-06-22T01:18:54;23.25;;;15.77;;
27223;SDS011;14965;50.660;13.226;2023-06-22T01:21:28;21.60;;;16.05;;
27223;SDS011;14965;50.660;13.226;2023-06-22T01:24:01;22.33;;;17.05;;
27223;SDS011;14965;50.660;13.226;2023-06-22T01:26:42;22.27;;;16.17;;
27223;SDS011;14965;50.660;13.226;2023-06-22T01:31:47;20.20;;;14.70;;
27223;SDS011;14965;50.660;13.226;2023-06-22T01:34:15;23.02;;;16.35;;
27223;SDS011;14965;50.660;13.226;2023-06-22T01:36:43;20.77;;;15.30;;
27223;SDS011;14965;50.660;13.226;2023-06-22T01:39:10;19.42;;;15.15;;
27223;SDS011;14965;50.660;13.226;2023-06-22T01:41:37;20.58;;;15.45;;
27223;SDS011;14965;50.660;13.226;2023-06-22T01:44:06;21.73;;;15.63;;
27223;SDS011;14965;50.660;13.226;2023-06-22T01:46:35;23.65;;;15.57;;
27223;SDS011;14965;50.660;13.226;2023-06-22T01:49:03;22.98;;;16.50;;
27223;SDS011;14965;50.660;13.226;2023-06-22T01:51:31;20.42;;;15.57;;
27223;SDS011;14965;50.660;13.226;2023-06-22T01:53:57;21.38;;;15.50;;
27223;SDS011;14965;50.660;13.226;2023-06-22T01:56:23;19.67;;;15.98;;
27223;SDS011;14965;50.660;13.226;2023-06-22T01:58:54;25.40;;;15.82;;
27223;SDS011;14965;50.660;13.226;2023-06-22T02:01:31;23.98;;;14.88;;
27223;SDS011;14965;50.660;13.226;2023-06-22T02:04:08;19.25;;;14.90;;
27223;SDS011;14965;50.660;13.226;2023-06-22T02:06:45;21.20;;;15.32;;
27223;SDS011;14965;50.660;13.226;2023-06-22T02:09:16;23.33;;;15.02;;
27223;SDS011;14965;50.660;13.226;2023-06-22T02:11:46;21.10;;;15.60;;
27223;SDS011;14965;50.660;13.226;2023-06-22T02:14:17;22.20;;;15.07;;
27223;SDS011;14965;50.660;13.226;2023-06-22T02:16:46;22.20;;;14.95;;
27223;SDS011;14965;50.660;13.226;2023-06-22T02:19:12;19.13;;;14.98;;
27223;SDS011;14965;50.660;13.226;2023-06-22T02:21:38;18.90;;;14.82;;
27223;SDS011;14965;50.660;13.226;2023-06-22T02:24:04;19.02;;;14.95;;
27223;SDS011;14965;50.660;13.226;2023-06-22T02:26:30;19.85;;;15.20;;
27223;SDS011;14965;50.660;13.226;2023-06-22T02:28:57;20.55;;;15.23;;
27223;SDS011;14965;50.660;13.226;2023-06-22T02:31:23;19.42;;;15.73;;
27223;SDS011;14965;50.660;13.226;2023-06-22T02:33:50;20.90;;;15.68;;
27223;SDS011;14965;50.660;13.226;2023-06-22T02:36:16;27.55;;;16.13;;
27223;SDS011;14965;50.660;13.226;2023-06-22T02:38:42;24.38;;;15.77;;
27223;SDS011;14965;50.660;13.226;2023-06-22T02:41:09;22.77;;;16.00;;
27223;SDS011;14965;50.660;13.226;2023-06-22T02:43:34;20.88;;;15.43;;
27223;SDS011;14965;50.660;13.226;2023-06-22T02:46:00;20.13;;;15.68;;
27223;SDS011;14965;50.660;13.226;2023-06-22T02:48:26;19.85;;;15.68;;
27223;SDS011;14965;50.660;13.226;2023-06-22T02:50:53;20.40;;;15.93;;
27223;SDS011;14965;50.660;13.226;2023-06-22T02:53:19;27.95;;;16.08;;
27223;SDS011;14965;50.660;13.226;2023-06-22T02:55:45;21.83;;;16.33;;
27223;SDS011;14965;50.660;13.226;2023-06-22T02:58:11;22.48;;;16.25;;
27223;SDS011;14965;50.660;13.226;2023-06-22T03:00:36;24.98;;;16.33;;
27223;SDS011;14965;50.660;13.226;2023-06-22T03:03:02;20.70;;;15.82;;
27223;SDS011;14965;50.660;13.226;2023-06-22T03:05:28;22.45;;;15.70;;
27223;SDS011;14965;50.660;13.226;2023-06-22T03:07:55;22.52;;;16.15;;
27223;SDS011;14965;50.660;13.226;2023-06-22T03:10:21;24.88;;;15.98;;
27223;SDS011;14965;50.660;13.226;2023-06-22T03:12:47;21.38;;;16.58;;
27223;SDS011;14965;50.660;13.226;2023-06-22T03:15:13;23.30;;;15.70;;
27223;SDS011;14965;50.660;13.226;2023-06-22T03:17:39;22.92;;;16.38;;
27223;SDS011;14965;50.660;13.226;2023-06-22T03:20:06;21.48;;;16.13;;
27223;SDS011;14965;50.660;13.226;2023-06-22T03:22:33;25.40;;;16.95;;
27223;SDS011;14965;50.660;13.226;2023-06-22T03:25:00;22.48;;;16.35;;
27223;SDS011;14965;50.660;13.226;2023-06-22T03:27:26;25.50;;;16.23;;
27223;SDS011;14965;50.660;13.226;2023-06-22T03:29:52;19.40;;;15.07;;
27223;SDS011;14965;50.660;13.226;2023-06-22T03:32:18;21.17;;;15.07;;
27223;SDS011;14965;50.660;13.226;2023-06-22T03:34:44;21.35;;;15.20;;
27223;SDS011;14965;50.660;13.226;2023-06-22T03:37:10;20.00;;;15.48;;
27223;SDS011;14965;50.660;13.226;2023-06-22T03:39:35;20.40;;;15.90;;
27223;SDS011;14965;50.660;13.226;2023-06-22T03:42:03;20.08;;;15.02;;
27223;SDS011;14965;50.660;13.226;2023-06-22T03:44:30;20.45;;;15.02;;
27223;SDS011;14965;50.660;13.226;2023-06-22T03:46:56;23.70;;;15.68;;
27223;SDS011;14965;50.660;13.226;2023-06-22T03:49:22;23.23;;;15.80;;
27223;SDS011;14965;50.660;13.226;2023-06-22T03:51:47;24.10;;;16.08;;
27223;SDS011;14965;50.660;13.226;2023-06-22T03:54:13;20.25;;;15.82;;
27223;SDS011;14965;50.660;13.226;2023-06-22T03:56:39;19.17;;;14.77;;
27223;SDS011;14965;50.660;13.226;2023-06-22T03:59:06;22.85;;;16.27;;
27223;SDS011;14965;50.660;13.226;2023-06-22T04:01:32;23.33;;;14.90;;
27223;SDS011;14965;50.660;13.226;2023-06-22T04:03:58;20.60;;;15.13;;
27223;SDS011;14965;50.660;13.226;2023-06-22T04:06:24;21.17;;;14.10;;
27223;SDS011;14965;50.660;13.226;2023-06-22T04:08:49;20.40;;;14.45;;
27223;SDS011;14965;50.660;13.226;2023-06-22T04:11:15;23.00;;;16.25;;
27223;SDS011;14965;50.660;13.226;2023-06-22T04:13:41;19.98;;;15.00;;
27223;SDS011;14965;50.660;13.226;2023-06-22T04:16:08;19.95;;;15.02;;
27223;SDS011;14965;50.660;13.226;2023-06-22T04:18:34;23.60;;;14.70;;
27223;SDS011;14965;50.660;13.226;2023-06-22T04:21:01;17.05;;;13.75;;
27223;SDS011;14965;50.660;13.226;2023-06-22T04:23:27;21.40;;;14.05;;
27223;SDS011;14965;50.660;13.226;2023-06-22T04:25:53;18.88;;;13.32;;
27223;SDS011;14965;50.660;13.226;2023-06-22T04:28:19;17.77;;;12.85;;
27223;SDS011;14965;50.660;13.226;2023-06-22T04:30:45;16.98;;;12.95;;
27223;SDS011;14965;50.660;13.226;2023-06-22T04:33:12;17.05;;;13.00;;
27223;SDS011;14965;50.660;13.226;2023-06-22T04:35:38;16.10;;;12.68;;
27223;SDS011;14965;50.660;13.226;2023-06-22T04:38:04;16.60;;;12.25;;
27223;SDS011;14965;50.660;13.226;2023-06-22T04:40:30;17.30;;;12.23;;
27223;SDS011;14965;50.660;13.226;2023-06-22T04:42:56;15.63;;;11.43;;
27223;SDS011;14965;50.660;13.226;2023-06-22T04:45:22;13.63;;;10.68;;
27223;SDS011;14965;50.660;13.226;2023-06-22T04:47:48;16.77;;;11.85;;
27223;SDS011;14965;50.660;13.226;2023-06-22T04:50:15;17.13;;;12.20;;
27223;SDS011;14965;50.660;13.226;2023-06-22T04:52:41;14.40;;;11.77;;
27223;SDS011;14965;50.660;13.226;2023-06-22T04:55:07;15.52;;;11.63;;
27223;SDS011;14965;50.660;13.226;2023-06-22T04:57:33;14.55;;;11.93;;
27223;SDS011;14965;50.660;13.226;2023-06-22T04:59:59;16.10;;;12.00;;
27223;SDS011;14965;50.660;13.226;2023-06-22T05:02:26;13.10;;;11.30;;
27223;SDS011;14965;50.660;13.226;2023-06-22T05:04:52;16.65;;;11.63;;
27223;SDS011;14965;50.660;13.226;2023-06-22T05:07:19;14.90;;;11.50;;
27223;SDS011;14965;50.660;13.226;2023-06-22T05:09:45;13.93;;;11.15;;
27223;SDS011;14965;50.660;13.226;2023-06-22T05:12:10;15.95;;;11.35;;
27223;SDS011;14965;50.660;13.226;2023-06-22T05:14:36;17.13;;;11.85;;
27223;SDS011;14965;50.660;13.226;2023-06-22T05:17:02;12.13;;;10.45;;
27223;SDS011;14965;50.660;13.226;2023-06-22T05:19:29;11.98;;;10.38;;
27223;SDS011;14965;50.660;13.226;2023-06-22T05:21:55;13.95;;;11.30;;
27223;SDS011;14965;50.660;13.226;2023-06-22T05:24:22;13.80;;;11.02;;
27223;SDS011;14965;50.660;13.226;2023-06-22T05:26:47;16.02;;;11.00;;
27223;SDS011;14965;50.660;13.226;2023-06-22T05:29:13;14.50;;;11.05;;
27223;SDS011;14965;50.660;13.226;2023-06-22T05:31:39;12.20;;;10.65;;
27223;SDS011;14965;50.660;13.226;2023-06-22T05:34:05;12.68;;;10.65;;
27223;SDS011;14965;50.660;13.226;2023-06-22T05:36:31;13.88;;;9.60;;
27223;SDS011;14965;50.660;13.226;2023-06-22T05:38:57;14.27;;;10.25;;
27223;SDS011;14965;50.660;13.226;2023-06-22T05:41:24;10.82;;;9.73;;
27223;SDS011;14965;50.660;13.226;2023-06-22T05:43:50;11.43;;;9.85;;
27223;SDS011;14965;50.660;13.226;2023-06-22T05:46:16;10.48;;;9.38;;
27223;SDS011;14965;50.660;13.226;2023-06-22T05:48:42;12.48;;;9.68;;
27223;SDS011;14965;50.660;13.226;2023-06-22T05:51:08;11.48;;;10.18;;
27223;SDS011;14965;50.660;13.226;2023-06-22T05:53:34;10.25;;;9.25;;
27223;SDS011;14965;50.660;13.226;2023-06-22T05:56:00;13.45;;;9.50;;
27223;SDS011;14965;50.660;13.226;2023-06-22T05:58:27;11.80;;;10.57;;
27223;SDS011;14965;50.660;13.226;2023-06-22T06:00:53;10.68;;;9.02;;
27223;SDS011;14965;50.660;13.226;2023-06-22T06:03:19;11.73;;;9.57;;
27223;SDS011;14965;50.660;13.226;2023-06-22T06:05:45;11.23;;;9.32;;
27223;SDS011;14965;50.660;13.226;2023-06-22T06:08:11;12.98;;;9.45;;
27223;SDS011;14965;50.660;13.226;2023-06-22T06:10:37;12.75;;;9.68;;
27223;SDS011;14965;50.660;13.226;2023-06-22T06:13:03;12.65;;;8.90;;
27223;SDS011;14965;50.660;13.226;2023-06-22T06:15:30;12.70;;;8.90;;
27223;SDS011;14965;50.660;13.226;2023-06-22T06:17:57;13.30;;;9.30;;
27223;SDS011;14965;50.660;13.226;2023-06-22T06:20:23;11.40;;;8.80;;
27223;SDS011;14965;50.660;13.226;2023-06-22T06:22:51;12.60;;;9.63;;
27223;SDS011;14965;50.660;13.226;2023-06-22T06:25:17;12.32;;;8.77;;
27223;SDS011;14965;50.660;13.226;2023-06-22T06:27:43;11.88;;;8.98;;
27223;SDS011;14965;50.660;13.226;2023-06-22T06:30:10;11.38;;;9.27;;
27223;SDS011;14965;50.660;13.226;2023-06-22T06:32:39;11.15;;;9.05;;
27223;SDS011;14965;50.660;13.226;2023-06-22T06:35:07;10.95;;;9.00;;
27223;SDS011;14965;50.660;13.226;2023-06-22T06:37:35;11.48;;;9.07;;
27223;SDS011;14965;50.660;13.226;2023-06-22T06:40:03;10.45;;;8.88;;
27223;SDS011;14965;50.660;13.226;2023-06-22T06:42:31;12.48;;;9.10;;
27223;SDS011;14965;50.660;13.226;2023-06-22T06:44:57;11.60;;;9.10;;
27223;SDS011;14965;50.660;13.226;2023-06-22T06:47:23;15.30;;;9.10;;
27223;SDS011;14965;50.660;13.226;2023-06-22T06:49:50;12.68;;;9.23;;
27223;SDS011;14965;50.660;13.226;2023-06-22T06:52:16;10.60;;;8.38;;
27223;SDS011;14965;50.660;13.226;2023-06-22T06:54:41;12.88;;;8.70;;
27223;SDS011;14965;50.660;13.226;2023-06-22T06:57:07;13.40;;;8.57;;
27223;SDS011;14965;50.660;13.226;2023-06-22T06:59:33;10.98;;;8.40;;
27223;SDS011;14965;50.660;13.226;2023-06-22T07:01:59;10.30;;;8.60;;
27223;SDS011;14965;50.660;13.226;2023-06-22T07:04:25;9.82;;;8.07;;
27223;SDS011;14965;50.660;13.226;2023-06-22T07:06:52;10.77;;;8.55;;
27223;SDS011;14965;50.660;13.226;2023-06-22T07:09:18;14.40;;;9.13;;
27223;SDS011;14965;50.660;13.226;2023-06-22T07:11:44;10.93;;;8.25;;
27223;SDS011;14965;50.660;13.226;2023-06-22T07:14:09;10.23;;;8.15;;
27223;SDS011;14965;50.660;13.226;2023-06-22T07:16:35;10.23;;;8.35;;
27223;SDS011;14965;50.660;13.226;2023-06-22T07:19:01;10.23;;;8.27;;
27223;SDS011;14965;50.660;13.226;2023-06-22T07:21:27;11.57;;;8.80;;
27223;SDS011;14965;50.660;13.226;2023-06-22T07:23:54;12.45;;;7.93;;
27223;SDS011;14965;50.660;13.226;2023-06-22T07:26:20;10.30;;;8.90;;
27223;SDS011;14965;50.660;13.226;2023-06-22T07:28:46;11.18;;;8.48;;
27223;SDS011;14965;50.660;13.226;2023-06-22T07:31:12;11.75;;;8.55;;
27223;SDS011;14965;50.660;13.226;2023-06-22T07:33:37;11.60;;;8.93;;
27223;SDS011;14965;50.660;13.226;2023-06-22T07:36:03;11.77;;;8.75;;
27223;SDS011;14965;50.660;13.226;2023-06-22T07:38:29;10.68;;;8.93;;
27223;SDS011;14965;50.660;13.226;2023-06-22T07:40:56;10.98;;;8.55;;
27223;SDS011;14965;50.660;13.226;2023-06-22T07:43:22;10.27;;;8.73;;
27223;SDS011;14965;50.660;13.226;2023-06-22T07:45:48;12.23;;;9.15;;
27223;SDS011;14965;50.660;13.226;2023-06-22T07:48:14;14.85;;;9.15;;
27223;SDS011;14965;50.660;13.226;2023-06-22T07:50:40;11.55;;;9.38;;
27223;SDS011;14965;50.660;13.226;2023-06-22T07:53:06;12.25;;;9.32;;
27223;SDS011;14965;50.660;13.226;2023-06-22T07:55:32;11.00;;;8.90;;
27223;SDS011;14965;50.660;13.226;2023-06-22T07:57:59;12.95;;;9.25;;
27223;SDS011;14965;50.660;13.226;2023-06-22T08:00:25;10.07;;;8.82;;
27223;SDS011;14965;50.660;13.226;2023-06-22T08:02:51;15.07;;;9.13;;
27223;SDS011;14965;50.660;13.226;2023-06-22T08:05:17;11.15;;;9.30;;
27223;SDS011;14965;50.660;13.226;2023-06-22T08:07:43;16.35;;;10.10;;
27223;SDS011;14965;50.660;13.226;2023-06-22T08:10:10;13.93;;;8.95;;
27223;SDS011;14965;50.660;13.226;2023-06-22T08:12:37;12.90;;;9.38;;
27223;SDS011;14965;50.660;13.226;2023-06-22T08:15:06;14.35;;;9.73;;
27223;SDS011;14965;50.660;13.226;2023-06-22T08:17:33;11.82;;;9.30;;
27223;SDS011;14965;50.660;13.226;2023-06-22T08:19:59;12.65;;;9.57;;
27223;SDS011;14965;50.660;13.226;2023-06-22T08:22:25;14.77;;;9.80;;
27223;SDS011;14965;50.660;13.226;2023-06-22T08:24:50;12.05;;;9.85;;
27223;SDS011;14965;50.660;13.226;2023-06-22T08:27:16;12.80;;;10.07;;
27223;SDS011;14965;50.660;13.226;2023-06-22T08:29:42;20.85;;;10.80;;
27223;SDS011;14965;50.660;13.226;2023-06-22T08:32:09;16.25;;;10.30;;
27223;SDS011;14965;50.660;13.226;2023-06-22T08:34:35;21.02;;;10.85;;
27223;SDS011;14965;50.660;13.226;2023-06-22T08:37:01;11.52;;;10.23;;
27223;SDS011;14965;50.660;13.226;2023-06-22T08:39:27;14.88;;;10.35;;
27223;SDS011;14965;50.660;13.226;2023-06-22T08:41:53;18.90;;;10.30;;
27223;SDS011;14965;50.660;13.226;2023-06-22T08:44:19;12.45;;;10.38;;
27223;SDS011;14965;50.660;13.226;2023-06-22T08:46:45;11.98;;;10.25;;
27223;SDS011;14965;50.660;13.226;2023-06-22T08:49:12;12.90;;;9.95;;
27223;SDS011;14965;50.660;13.226;2023-06-22T08:51:38;14.35;;;10.65;;
27223;SDS011;14965;50.660;13.226;2023-06-22T08:54:04;15.52;;;10.60;;
27223;SDS011;14965;50.660;13.226;2023-06-22T08:56:30;11.35;;;10.15;;
27223;SDS011;14965;50.660;13.226;2023-06-22T08:58:56;12.60;;;10.20;;
27223;SDS011;14965;50.660;13.226;2023-06-22T09:01:21;14.02;;;10.77;;
27223;SDS011;14965;50.660;13.226;2023-06-22T09:03:47;12.15;;;10.90;;
27223;SDS011;14965;50.660;13.226;2023-06-22T09:06:14;14.55;;;10.80;;
27223;SDS011;14965;50.660;13.226;2023-06-22T09:08:40;15.88;;;10.45;;
27223;SDS011;14965;50.660;13.226;2023-06-22T09:11:06;13.55;;;11.30;;
27223;SDS011;14965;50.660;13.226;2023-06-22T09:13:32;11.50;;;9.90;;
27223;SDS011;14965;50.660;13.226;2023-06-22T09:15:58;18.00;;;10.63;;
27223;SDS011;14965;50.660;13.226;2023-06-22T09:18:24;13.73;;;10.05;;
27223;SDS011;14965;50.660;13.226;2023-06-22T09:20:49;13.90;;;10.07;;
27223;SDS011;14965;50.660;13.226;2023-06-22T09:23:17;15.77;;;9.90;;
27223;SDS011;14965;50.660;13.226;2023-06-22T09:25:42;13.65;;;9.60;;
27223;SDS011;14965;50.660;13.226;2023-06-22T09:28:08;13.15;;;9.43;;
27223;SDS011;14965;50.660;13.226;2023-06-22T09:30:34;20.85;;;9.65;;
27223;SDS011;14965;50.660;13.226;2023-06-22T09:33:00;14.10;;;9.20;;
27223;SDS011;14965;50.660;13.226;2023-06-22T09:35:26;11.40;;;8.90;;
27223;SDS011;14965;50.660;13.226;2023-06-22T09:37:52;13.35;;;9.90;;
27223;SDS011;14965;50.660;13.226;2023-06-22T09:40:19;16.17;;;9.38;;
27223;SDS011;14965;50.660;13.226;2023-06-22T09:42:45;13.40;;;9.30;;
27223;SDS011;14965;50.660;13.226;2023-06-22T09:45:11;11.95;;;9.25;;
27223;SDS011;14965;50.660;13.226;2023-06-22T09:47:36;16.15;;;9.20;;
27223;SDS011;14965;50.660;13.226;2023-06-22T09:50:03;13.10;;;9.63;;
27223;SDS011;14965;50.660;13.226;2023-06-22T09:52:29;13.90;;;8.45;;
27223;SDS011;14965;50.660;13.226;2023-06-22T09:54:55;13.98;;;8.60;;
27223;SDS011;14965;50.660;13.226;2023-06-22T09:57:22;14.50;;;8.70;;
27223;SDS011;14965;50.660;13.226;2023-06-22T09:59:48;10.55;;;8.00;;
27223;SDS011;14965;50.660;13.226;2023-06-22T10:02:14;12.55;;;8.20;;
27223;SDS011;14965;50.660;13.226;2023-06-22T10:04:40;13.10;;;8.77;;
27223;SDS011;14965;50.660;13.226;2023-06-22T10:07:06;11.20;;;8.07;;
27223;SDS011;14965;50.660;13.226;2023-06-22T10:09:31;11.30;;;7.78;;
27223;SDS011;14965;50.660;13.226;2023-06-22T10:11:57;10.88;;;7.35;;
27223;SDS011;14965;50.660;13.226;2023-06-22T10:14:24;8.98;;;7.88;;
27223;SDS011;14965;50.660;13.226;2023-06-22T10:16:51;13.60;;;8.50;;
27223;SDS011;14965;50.660;13.226;2023-06-22T10:19:17;11.30;;;8.45;;
27223;SDS011;14965;50.660;13.226;2023-06-22T10:21:43;13.38;;;8.30;;
27223;SDS011;14965;50.660;13.226;2023-06-22T10:24:09;12.57;;;8.98;;
27223;SDS011;14965;50.660;13.226;2023-06-22T10:26:35;13.40;;;8.45;;
27223;SDS011;14965;50.660;13.226;2023-06-22T10:29:02;12.65;;;8.35;;
27223;SDS011;14965;50.660;13.226;2023-06-22T10:31:30;11.73;;;7.95;;
27223;SDS011;14965;50.660;13.226;2023-06-22T10:33:56;12.30;;;8.57;;
27223;SDS011;14965;50.660;13.226;2023-06-22T10:36:21;11.95;;;8.82;;
27223;SDS011;14965;50.660;13.226;2023-06-22T10:38:48;10.85;;;8.32;;
27223;SDS011;14965;50.660;13.226;2023-06-22T10:41:14;14.27;;;9.38;;
27223;SDS011;14965;50.660;13.226;2023-06-22T10:43:40;13.60;;;8.90;;
27223;SDS011;14965;50.660;13.226;2023-06-22T10:46:06;16.02;;;9.43;;
27223;SDS011;14965;50.660;13.226;2023-06-22T10:48:33;11.57;;;8.77;;
27223;SDS011;14965;50.660;13.226;2023-06-22T10:50:59;14.27;;;9.43;;
27223;SDS011;14965;50.660;13.226;2023-06-22T10:53:25;13.13;;;9.05;;
27223;SDS011;14965;50.660;13.226;2023-06-22T10:55:51;12.13;;;8.80;;
27223;SDS011;14965;50.660;13.226;2023-06-22T10:58:17;12.60;;;9.73;;
27223;SDS011;14965;50.660;13.226;2023-06-22T11:00:43;10.98;;;9.63;;
27223;SDS011;14965;50.660;13.226;2023-06-22T11:03:09;13.25;;;9.45;;
27223;SDS011;14965;50.660;13.226;2023-06-22T11:05:37;15.70;;;9.80;;
27223;SDS011;14965;50.660;13.226;2023-06-22T11:08:03;11.10;;;9.20;;
27223;SDS011;14965;50.660;13.226;2023-06-22T11:10:29;11.20;;;9.20;;
27223;SDS011;14965;50.660;13.226;2023-06-22T11:12:55;12.00;;;10.02;;
27223;SDS011;14965;50.660;13.226;2023-06-22T11:15:21;13.25;;;9.57;;
27223;SDS011;14965;50.660;13.226;2023-06-22T11:17:46;17.70;;;9.38;;
27223;SDS011;14965;50.660;13.226;2023-06-22T11:20:12;12.75;;;9.90;;
27223;SDS011;14965;50.660;13.226;2023-06-22T11:22:40;12.57;;;9.38;;
27223;SDS011;14965;50.660;13.226;2023-06-22T11:25:06;10.40;;;8.30;;
27223;SDS011;14965;50.660;13.226;2023-06-22T11:27:33;12.30;;;9.38;;
27223;SDS011;14965;50.660;13.226;2023-06-22T11:29:59;14.70;;;10.20;;
27223;SDS011;14965;50.660;13.226;2023-06-22T11:32:25;13.15;;;9.80;;
27223;SDS011;14965;50.660;13.226;2023-06-22T11:34:51;11.50;;;9.18;;
27223;SDS011;14965;50.660;13.226;2023-06-22T11:37:17;14.13;;;9.90;;
27223;SDS011;14965;50.660;13.226;2023-06-22T11:39:44;12.55;;;10.10;;
27223;SDS011;14965;50.660;13.226;2023-06-22T11:42:10;15.10;;;9.20;;
27223;SDS011;14965;50.660;13.226;2023-06-22T11:44:36;15.27;;;10.57;;
27223;SDS011;14965;50.660;13.226;2023-06-22T11:47:02;13.38;;;9.52;;
27223;SDS011;14965;50.660;13.226;2023-06-22T11:49:28;16.60;;;10.00;;
27223;SDS011;14965;50.660;13.226;2023-06-22T11:51:56;12.45;;;10.18;;
27223;SDS011;14965;50.660;13.226;2023-06-22T11:54:22;17.60;;;10.43;;
27223;SDS011;14965;50.660;13.226;2023-06-22T11:56:49;12.88;;;9.85;;
27223;SDS011;14965;50.660;13.226;2023-06-22T11:59:15;12.68;;;10.05;;
27223;SDS011;14965;50.660;13.226;2023-06-22T12:01:41;17.63;;;10.30;;
27223;SDS011;14965;50.660;13.226;2023-06-22T12:04:06;15.23;;;9.70;;
27223;SDS011;14965;50.660;13.226;2023-06-22T12:06:32;12.52;;;10.23;;
27223;SDS011;14965;50.660;13.226;2023-06-22T12:09:00;14.13;;;10.32;;
27223;SDS011;14965;50.660;13.226;2023-06-22T12:11:26;13.85;;;10.48;;
27223;SDS011;14965;50.660;13.226;2023-06-22T12:13:53;14.63;;;10.25;;
27223;SDS011;14965;50.660;13.226;2023-06-22T12:16:19;13.73;;;10.07;;
27223;SDS011;14965;50.660;13.226;2023-06-22T12:18:45;12.52;;;9.80;;
27223;SDS011;14965;50.660;13.226;2023-06-22T12:21:11;12.52;;;9.43;;
27223;SDS011;14965;50.660;13.226;2023-06-22T12:23:37;11.00;;;9.80;;
27223;SDS011;14965;50.660;13.226;2023-06-22T12:26:03;13.57;;;10.25;;
27223;SDS011;14965;50.660;13.226;2023-06-22T12:28:29;15.30;;;9.82;;
27223;SDS011;14965;50.660;13.226;2023-06-22T12:30:56;13.63;;;10.07;;
27223;SDS011;14965;50.660;13.226;2023-06-22T12:33:22;14.27;;;9.93;;
27223;SDS011;14965;50.660;13.226;2023-06-22T12:35:47;14.73;;;9.88;;
27223;SDS011;14965;50.660;13.226;2023-06-22T12:38:13;11.25;;;9.50;;
27223;SDS011;14965;50.660;13.226;2023-06-22T12:40:39;12.88;;;10.15;;
27223;SDS011;14965;50.660;13.226;2023-06-22T12:43:05;18.27;;;9.68;;
27223;SDS011;14965;50.660;13.226;2023-06-22T12:45:31;14.43;;;9.82;;
27223;SDS011;14965;50.660;13.226;2023-06-22T12:47:58;12.80;;;9.15;;
27223;SDS011;14965;50.660;13.226;2023-06-22T12:50:24;10.85;;;9.35;;
27223;SDS011;14965;50.660;13.226;2023-06-22T12:52:50;14.40;;;9.75;;
27223;SDS011;14965;50.660;13.226;2023-06-22T12:55:16;10.32;;;9.05;;
27223;SDS011;14965;50.660;13.226;2023-06-22T12:57:42;12.80;;;9.43;;
27223;SDS011;14965;50.660;13.226;2023-06-22T13:00:08;14.13;;;9.73;;
27223;SDS011;14965;50.660;13.226;2023-06-22T13:02:35;10.98;;;8.52;;
27223;SDS011;14965;50.660;13.226;2023-06-22T13:05:02;11.90;;;9.40;;
27223;SDS011;14965;50.660;13.226;2023-06-22T13:07:29;15.05;;;9.63;;
27223;SDS011;14965;50.660;13.226;2023-06-22T13:09:55;13.57;;;9.27;;
27223;SDS011;14965;50.660;13.226;2023-06-22T13:12:20;10.73;;;9.23;;
27223;SDS011;14965;50.660;13.226;2023-06-22T13:14:47;12.48;;;9.85;;
27223;SDS011;14965;50.660;13.226;2023-06-22T13:17:13;13.18;;;9.50;;
27223;SDS011;14965;50.660;13.226;2023-06-22T13:19:39;12.80;;;9.07;;
27223;SDS011;14965;50.660;13.226;2023-06-22T13:22:09;12.65;;;9.13;;
27223;SDS011;14965;50.660;13.226;2023-06-22T13:24:53;11.25;;;9.18;;
27223;SDS011;14965;50.660;13.226;2023-06-22T13:27:19;11.82;;;8.75;;
27223;SDS011;14965;50.660;13.226;2023-06-22T13:29:45;17.85;;;9.48;;
27223;SDS011;14965;50.660;13.226;2023-06-22T13:32:11;12.13;;;9.38;;
27223;SDS011;14965;50.660;13.226;2023-06-22T13:34:37;13.80;;;8.95;;
27223;SDS011;14965;50.660;13.226;2023-06-22T13:37:03;11.82;;;8.80;;
27223;SDS011;14965;50.660;13.226;2023-06-22T13:39:30;14.35;;;9.73;;
27223;SDS011;14965;50.660;13.226;2023-06-22T13:41:57;12.77;;;9.23;;
27223;SDS011;14965;50.660;13.226;2023-06-22T13:44:23;12.00;;;9.25;;
27223;SDS011;14965;50.660;13.226;2023-06-22T13:46:49;13.75;;;9.13;;
27223;SDS011;14965;50.660;13.226;2023-06-22T13:49:15;14.02;;;9.75;;
27223;SDS011;14965;50.660;13.226;2023-06-22T13:51:41;15.00;;;9.20;;
27223;SDS011;14965;50.660;13.226;2023-06-22T13:54:07;11.75;;;9.23;;
27223;SDS011;14965;50.660;13.226;2023-06-22T13:56:34;13.40;;;9.43;;
27223;SDS011;14965;50.660;13.226;2023-06-22T13:59:00;13.88;;;8.98;;
27223;SDS011;14965;50.660;13.226;2023-06-22T14:01:25;17.20;;;8.95;;
27223;SDS011;14965;50.660;13.226;2023-06-22T14:03:51;13.52;;;9.27;;
27223;SDS011;14965;50.660;13.226;2023-06-22T14:06:17;15.00;;;9.18;;
27223;SDS011;14965;50.660;13.226;2023-06-22T14:08:43;12.18;;;9.48;;
27223;SDS011;14965;50.660;13.226;2023-06-22T14:11:09;15.80;;;9.80;;
27223;SDS011;14965;50.660;13.226;2023-06-22T14:13:36;13.45;;;9.20;;